createdAt,value
2018-09-30T00:01:23.881Z,15.10
2018-09-30T00:03:51.970Z,15.60
2018-09-30T00:06:20.054Z,14.90
2018-09-30T00:08:48.127Z,15.20
2018-09-30T00:11:16.419Z,15.70
2018-09-30T00:13:44.617Z,15.80
2018-09-30T00:16:12.695Z,16.20
2018-09-30T00:18:40.778Z,16.70
2018-09-30T00:21:09.118Z,16.70
2018-09-30T00:23:42.638Z,17.30
2018-09-30T00:26:16.215Z,17.60
2018-09-30T00:28:44.411Z,16.90
2018-09-30T00:31:12.486Z,16.60
2018-09-30T00:33:45.997Z,16.60
2018-09-30T00:36:14.219Z,17.00
2018-09-30T00:38:42.298Z,16.60
2018-09-30T00:41:10.506Z,16.60
2018-09-30T00:43:38.869Z,17.40
2018-09-30T00:46:07.097Z,17.40
2018-09-30T00:48:35.357Z,16.50
2018-09-30T00:51:03.594Z,16.50
2018-09-30T00:53:31.670Z,16.50
2018-09-30T00:55:59.825Z,16.40
2018-09-30T00:58:27.906Z,17.20
2018-09-30T01:00:55.976Z,17.50
2018-09-30T01:03:24.059Z,17.90
2018-09-30T01:05:52.135Z,18.10
2018-09-30T01:08:20.246Z,17.50
2018-09-30T01:10:48.313Z,18.30
2018-09-30T01:13:16.394Z,18.50
2018-09-30T01:15:44.697Z,18.80
2018-09-30T01:18:12.786Z,19.40
2018-09-30T01:20:40.897Z,19.50
2018-09-30T01:23:09.011Z,19.20
2018-09-30T01:25:37.094Z,19.20
2018-09-30T01:28:05.334Z,18.30
2018-09-30T01:30:33.414Z,18.10
2018-09-30T01:33:01.650Z,18.10
2018-09-30T01:35:29.730Z,18.10
2018-09-30T01:37:58.098Z,18.90
2018-09-30T01:40:26.174Z,18.50
2018-09-30T01:42:54.263Z,20.00
2018-09-30T01:45:22.338Z,19.60
2018-09-30T01:47:50.428Z,19.40
2018-09-30T01:50:18.506Z,19.70
2018-09-30T01:52:48.033Z,19.70
2018-09-30T01:55:16.103Z,19.70
2018-09-30T01:57:44.191Z,20.00
2018-09-30T02:00:12.271Z,19.70
2018-09-30T02:02:40.354Z,19.80
2018-09-30T02:05:08.590Z,19.60
2018-09-30T02:07:36.675Z,19.40
2018-09-30T02:10:04.777Z,19.90
2018-09-30T02:12:33.109Z,19.80
2018-09-30T02:15:01.220Z,19.40
2018-09-30T02:17:29.262Z,20.20
2018-09-30T02:19:57.379Z,20.50
2018-09-30T02:22:25.594Z,21.00
2018-09-30T02:24:53.678Z,21.10
2018-09-30T02:27:21.758Z,20.60
2018-09-30T02:29:49.850Z,20.30
2018-09-30T02:32:17.929Z,20.50
2018-09-30T02:34:46.019Z,19.90
2018-09-30T02:37:14.141Z,19.60
2018-09-30T02:39:42.231Z,20.20
2018-09-30T02:42:10.870Z,20.30
2018-09-30T02:44:38.954Z,20.00
2018-09-30T02:47:07.067Z,19.80
2018-09-30T02:49:35.150Z,20.00
2018-09-30T02:52:03.238Z,20.20
2018-09-30T02:54:31.373Z,20.40
2018-09-30T02:56:59.459Z,20.40
2018-09-30T02:59:27.533Z,21.10
2018-09-30T03:01:55.623Z,21.00
2018-09-30T03:04:23.695Z,21.10
2018-09-30T03:06:57.223Z,21.50
2018-09-30T03:09:25.306Z,21.40
2018-09-30T03:11:53.390Z,22.20
2018-09-30T03:14:21.466Z,21.90
2018-09-30T03:16:49.554Z,22.50
2018-09-30T03:19:17.647Z,22.60
2018-09-30T03:21:45.721Z,22.60
2018-09-30T03:24:13.816Z,22.60
2018-09-30T03:26:42.364Z,22.60
2018-09-30T03:29:10.740Z,22.40
2018-09-30T03:31:38.871Z,21.90
2018-09-30T03:34:07.278Z,22.00
2018-09-30T03:36:35.362Z,22.10
2018-09-30T03:39:04.082Z,22.50
2018-09-30T03:41:32.161Z,22.60
2018-09-30T03:44:00.262Z,21.70
2018-09-30T03:46:28.338Z,21.30
2018-09-30T03:48:56.435Z,22.00
2018-09-30T03:51:24.527Z,22.10
2018-09-30T03:53:52.626Z,22.00
2018-09-30T03:56:20.701Z,22.50
2018-09-30T03:58:48.774Z,22.20
2018-09-30T04:01:16.866Z,22.20
2018-09-30T04:03:44.946Z,22.40
2018-09-30T04:06:13.254Z,22.30
2018-09-30T04:08:41.342Z,22.30
2018-09-30T04:11:09.435Z,22.20
2018-09-30T04:13:37.689Z,22.30
2018-09-30T04:16:05.800Z,22.30
2018-09-30T04:18:33.883Z,22.30
2018-09-30T04:21:01.971Z,22.90
2018-09-30T04:23:30.046Z,22.70
2018-09-30T04:25:58.251Z,22.80
2018-09-30T04:28:26.316Z,22.70
2018-09-30T04:30:54.426Z,22.60
2018-09-30T04:33:22.574Z,22.50
2018-09-30T04:35:50.623Z,22.60
2018-09-30T04:38:18.703Z,22.90
2018-09-30T04:40:46.801Z,22.60
2018-09-30T04:43:14.879Z,22.70
2018-09-30T04:45:42.954Z,22.20
2018-09-30T04:48:11.067Z,22.50
2018-09-30T04:50:39.146Z,22.10
2018-09-30T04:53:07.242Z,22.30
2018-09-30T04:55:35.330Z,22.50
2018-09-30T04:58:03.402Z,22.60
2018-09-30T05:00:31.506Z,22.80
2018-09-30T05:02:59.577Z,23.00
2018-09-30T05:05:27.792Z,22.80
2018-09-30T05:07:55.862Z,23.10
2018-09-30T05:10:23.970Z,23.30
2018-09-30T05:12:52.053Z,23.70
2018-09-30T05:15:20.261Z,23.80
2018-09-30T05:17:48.334Z,23.30
2018-09-30T05:20:16.419Z,23.50
2018-09-30T05:22:44.506Z,23.70
2018-09-30T05:25:12.594Z,23.70
2018-09-30T05:27:40.670Z,23.50
2018-09-30T05:30:08.751Z,23.60
2018-09-30T05:32:36.836Z,23.60
2018-09-30T05:35:04.929Z,23.90
2018-09-30T05:37:33.022Z,23.90
2018-09-30T05:40:01.103Z,24.20
2018-09-30T05:42:29.187Z,23.90
2018-09-30T05:44:57.258Z,24.10
2018-09-30T05:47:25.346Z,24.50
2018-09-30T05:49:53.420Z,24.70
2018-09-30T05:52:21.527Z,24.60
2018-09-30T05:54:49.604Z,24.80
2018-09-30T05:57:17.701Z,25.10
2018-09-30T05:59:45.774Z,23.70
2018-09-30T06:02:13.871Z,24.20
2018-09-30T06:04:41.969Z,25.20
2018-09-30T06:07:10.074Z,25.90
2018-09-30T06:09:38.154Z,26.10
2018-09-30T06:12:06.234Z,26.00
2018-09-30T06:14:34.331Z,25.80
2018-09-30T06:17:02.422Z,25.90
2018-09-30T06:19:30.896Z,25.70
2018-09-30T06:21:58.990Z,25.70
2018-09-30T06:24:27.875Z,25.50
2018-09-30T06:26:55.956Z,25.10
2018-09-30T06:29:24.034Z,24.50
2018-09-30T06:31:52.165Z,24.40
2018-09-30T06:34:20.233Z,24.70
2018-09-30T06:36:48.336Z,24.00
2018-09-30T06:39:16.431Z,24.10
2018-09-30T06:41:44.773Z,23.90
2018-09-30T06:44:12.874Z,24.70
2018-09-30T06:46:40.990Z,24.60
2018-09-30T06:49:09.058Z,24.00
2018-09-30T06:51:37.355Z,24.00
2018-09-30T06:54:05.495Z,23.50
2018-09-30T06:56:33.599Z,23.60
2018-09-30T06:59:01.912Z,23.40
2018-09-30T07:01:29.998Z,23.90
2018-09-30T07:03:58.154Z,23.30
2018-09-30T07:06:26.245Z,22.90
2018-09-30T07:08:54.336Z,22.70
2018-09-30T07:11:22.433Z,22.70
2018-09-30T07:13:50.598Z,22.60
2018-09-30T07:16:18.674Z,24.00
2018-09-30T07:18:46.770Z,24.20
2018-09-30T07:21:14.846Z,22.60
2018-09-30T07:23:43.041Z,23.60
2018-09-30T07:26:11.122Z,22.30
2018-09-30T07:28:39.202Z,21.80
2018-09-30T07:31:07.698Z,20.30
2018-09-30T07:33:35.805Z,21.00
2018-09-30T07:36:03.870Z,19.50
2018-09-30T07:38:31.966Z,21.10
2018-09-30T07:41:00.438Z,23.40
2018-09-30T07:43:28.530Z,21.40
2018-09-30T07:45:56.614Z,24.40
2018-09-30T07:48:24.701Z,21.90
2018-09-30T07:50:52.789Z,23.60
2018-09-30T07:53:20.879Z,21.70
2018-09-30T07:55:48.963Z,22.50
2018-09-30T07:58:17.060Z,22.10
2018-09-30T08:00:45.162Z,23.10
2018-09-30T08:03:13.343Z,22.90
2018-09-30T08:05:41.435Z,23.50
2018-09-30T08:08:09.701Z,23.00
2018-09-30T08:10:37.794Z,23.80
2018-09-30T08:13:06.011Z,22.70
2018-09-30T08:15:35.037Z,23.00
2018-09-30T08:18:03.896Z,23.20
2018-09-30T08:20:32.957Z,23.00
2018-09-30T08:23:02.767Z,22.40
2018-09-30T08:25:31.597Z,21.20
2018-09-30T08:27:59.666Z,20.60
2018-09-30T08:30:27.760Z,20.90
2018-09-30T08:32:55.833Z,20.30
2018-09-30T08:35:24.760Z,19.60
2018-09-30T08:37:58.545Z,20.20
2018-09-30T08:40:31.992Z,20.10
2018-09-30T08:43:00.226Z,17.80
2018-09-30T08:45:28.462Z,15.40
2018-09-30T08:47:56.878Z,14.60
2018-09-30T08:50:24.988Z,13.90
2018-09-30T08:52:53.114Z,14.10
2018-09-30T08:55:21.207Z,14.10
2018-09-30T08:57:49.290Z,13.90
2018-09-30T09:00:17.418Z,15.20
2018-09-30T09:02:45.670Z,15.20
2018-09-30T09:05:13.762Z,14.00
2018-09-30T09:07:42.048Z,14.90
2018-09-30T09:10:10.540Z,12.20
2018-09-30T09:12:38.946Z,13.80
2018-09-30T09:15:07.370Z,10.00
2018-09-30T09:17:35.666Z,9.70
2018-09-30T09:20:04.418Z,9.80
2018-09-30T09:22:32.511Z,11.10
2018-09-30T09:25:00.634Z,12.10
2018-09-30T09:27:28.782Z,11.10
2018-09-30T09:29:56.886Z,11.00
2018-09-30T09:32:24.968Z,10.70
2018-09-30T09:34:53.069Z,10.20
2018-09-30T09:37:21.142Z,11.20
2018-09-30T09:39:49.222Z,18.20
2018-09-30T09:42:17.306Z,21.30
2018-09-30T09:44:45.426Z,18.50
2018-09-30T09:47:13.494Z,18.30
2018-09-30T09:49:41.819Z,11.30
2018-09-30T09:52:09.894Z,9.40
2018-09-30T09:54:37.978Z,10.80
2018-09-30T09:57:06.088Z,9.80
2018-09-30T09:59:34.187Z,11.10
2018-09-30T10:02:02.257Z,10.10
2018-09-30T10:04:30.348Z,12.20
2018-09-30T10:06:58.429Z,13.00
2018-09-30T10:09:26.522Z,9.90
2018-09-30T10:11:54.603Z,10.70
2018-09-30T10:14:22.686Z,11.60
2018-09-30T10:16:50.770Z,11.70
2018-09-30T10:19:19.003Z,9.50
2018-09-30T10:21:47.046Z,9.70
2018-09-30T10:24:15.371Z,10.20
2018-09-30T10:26:43.564Z,9.60
2018-09-30T10:29:12.487Z,10.30
2018-09-30T10:31:40.974Z,9.70
2018-09-30T10:34:09.145Z,9.80
2018-09-30T10:36:37.598Z,10.60
2018-09-30T10:39:08.342Z,12.20
2018-09-30T10:41:36.606Z,11.00
2018-09-30T10:44:04.683Z,12.70
2018-09-30T10:46:33.147Z,12.30
2018-09-30T10:49:01.490Z,8.40
2018-09-30T10:51:29.834Z,8.10
2018-09-30T10:53:58.740Z,7.50
2018-09-30T10:56:27.071Z,9.10
2018-09-30T10:58:55.379Z,8.20
2018-09-30T11:01:23.477Z,6.70
2018-09-30T11:03:51.550Z,7.80
2018-09-30T11:06:19.631Z,9.70
2018-09-30T11:08:47.715Z,8.20
2018-09-30T11:11:15.791Z,7.30
2018-09-30T11:13:43.889Z,8.10
2018-09-30T11:16:12.001Z,8.90
2018-09-30T11:18:40.050Z,9.20
2018-09-30T11:21:08.451Z,8.10
2018-09-30T11:23:36.917Z,4.90
2018-09-30T11:26:05.006Z,4.90
2018-09-30T11:28:33.077Z,7.00
2018-09-30T11:31:08.333Z,6.40
2018-09-30T11:33:37.729Z,5.40
2018-09-30T11:36:16.241Z,4.40
2018-09-30T11:38:44.397Z,3.50
2018-09-30T11:41:12.482Z,6.60
2018-09-30T11:43:40.574Z,8.00
2018-09-30T11:46:08.778Z,4.40
2018-09-30T11:48:36.866Z,5.40
2018-09-30T11:51:05.320Z,5.30
2018-09-30T11:53:33.401Z,5.20
2018-09-30T11:56:01.482Z,2.40
2018-09-30T11:58:29.574Z,4.90
2018-09-30T12:00:57.650Z,4.60
2018-09-30T12:03:25.746Z,4.20
2018-09-30T12:05:53.814Z,4.10
2018-09-30T12:08:21.898Z,2.30
2018-09-30T12:10:49.982Z,2.70
2018-09-30T12:13:18.057Z,4.90
2018-09-30T12:15:46.134Z,4.40
2018-09-30T12:18:14.236Z,2.90
2018-09-30T12:20:42.299Z,3.10
2018-09-30T12:23:11.241Z,3.60
2018-09-30T12:25:40.458Z,3.70
2018-09-30T12:28:09.257Z,3.50
2018-09-30T12:30:37.338Z,2.10
2018-09-30T12:33:05.423Z,3.90
2018-09-30T12:35:33.506Z,2.40
2018-09-30T12:38:01.595Z,2.40
2018-09-30T12:40:29.669Z,3.30
2018-09-30T12:42:57.750Z,2.70
2018-09-30T12:45:25.849Z,2.20
2018-09-30T12:47:53.968Z,1.80
2018-09-30T12:50:22.039Z,1.00
2018-09-30T12:52:50.594Z,1.00
2018-09-30T12:55:18.775Z,1.40
2018-09-30T12:57:46.842Z,1.00
2018-09-30T13:00:14.928Z,1.00
2018-09-30T13:02:43.004Z,1.00
2018-09-30T13:05:11.094Z,1.00
2018-09-30T13:07:39.185Z,1.00
2018-09-30T13:10:07.269Z,1.00
2018-09-30T13:12:35.352Z,1.00
2018-09-30T13:15:03.452Z,1.00
2018-09-30T13:17:31.576Z,1.00
2018-09-30T13:19:59.665Z,1.00
2018-09-30T13:22:27.802Z,1.00
2018-09-30T13:24:55.914Z,1.00
2018-09-30T13:27:23.995Z,1.00
2018-09-30T13:29:52.090Z,1.00
2018-09-30T13:32:20.163Z,1.00
2018-09-30T13:34:48.251Z,1.00
2018-09-30T13:37:16.537Z,1.00
2018-09-30T13:39:44.622Z,1.00
2018-09-30T13:42:12.696Z,1.00
2018-09-30T13:44:40.788Z,1.00
2018-09-30T13:47:08.859Z,1.00
2018-09-30T13:49:36.938Z,1.00
2018-09-30T13:52:05.023Z,1.00
2018-09-30T13:54:33.097Z,1.00
2018-09-30T13:57:01.187Z,1.00
2018-09-30T13:59:29.271Z,1.00
2018-09-30T14:01:57.344Z,1.00
2018-09-30T14:04:25.434Z,1.00
2018-09-30T14:06:53.520Z,1.00
2018-09-30T14:09:21.601Z,1.00
2018-09-30T14:11:49.717Z,1.00
2018-09-30T14:14:17.918Z,1.00
2018-09-30T14:16:45.998Z,1.00
2018-09-30T14:19:14.094Z,1.00
2018-09-30T14:21:42.181Z,1.00
2018-09-30T14:24:10.272Z,1.00
2018-09-30T14:26:38.367Z,1.00
2018-09-30T14:29:06.666Z,1.00
2018-09-30T14:31:34.758Z,1.00
2018-09-30T14:34:02.904Z,1.00
2018-09-30T14:36:30.937Z,1.00
2018-09-30T14:38:59.242Z,1.00
2018-09-30T14:41:27.351Z,1.00
2018-09-30T14:43:55.431Z,1.00
2018-09-30T14:46:23.521Z,1.00
2018-09-30T14:48:51.624Z,1.00
2018-09-30T14:51:19.723Z,1.00
2018-09-30T14:53:47.804Z,1.00
2018-09-30T14:56:15.908Z,1.00
2018-09-30T14:58:43.982Z,1.00
2018-09-30T15:01:12.078Z,1.00
2018-09-30T15:03:40.154Z,1.00
2018-09-30T15:06:08.755Z,1.00
2018-09-30T15:08:36.806Z,1.00
2018-09-30T15:11:04.905Z,1.00
2018-09-30T15:13:32.983Z,1.00
2018-09-30T15:16:01.074Z,1.00
2018-09-30T15:18:29.161Z,1.00
2018-09-30T15:20:57.246Z,1.00
2018-09-30T15:23:25.311Z,1.00
2018-09-30T15:25:53.395Z,1.00
2018-09-30T15:28:21.467Z,1.00
2018-09-30T15:30:49.554Z,1.00
2018-09-30T15:33:17.634Z,1.00
2018-09-30T15:35:45.710Z,1.00
2018-09-30T15:38:13.786Z,1.00
2018-09-30T15:40:41.862Z,1.00
2018-09-30T15:43:09.930Z,1.00
2018-09-30T15:45:38.006Z,1.00
2018-09-30T15:48:06.090Z,1.00
2018-09-30T15:50:34.163Z,1.00
2018-09-30T15:53:02.254Z,1.00
2018-09-30T15:55:30.343Z,1.00
2018-09-30T15:57:58.415Z,1.00
2018-09-30T16:00:26.512Z,1.00
2018-09-30T16:02:54.598Z,1.00
2018-09-30T16:05:22.670Z,1.00
2018-09-30T16:07:50.751Z,1.00
2018-09-30T16:10:18.832Z,1.00
2018-09-30T16:12:46.894Z,1.00
2018-09-30T16:15:14.970Z,1.00
2018-09-30T16:17:43.050Z,1.00
2018-09-30T16:20:11.146Z,1.00
2018-09-30T16:22:39.227Z,1.00
2018-09-30T16:25:07.342Z,1.00
2018-09-30T16:27:35.413Z,1.00
2018-09-30T16:30:03.494Z,1.20
2018-09-30T16:32:31.581Z,1.70
2018-09-30T16:34:59.674Z,2.20
2018-09-30T16:37:27.750Z,1.20
2018-09-30T16:39:55.824Z,1.00
2018-09-30T16:42:23.938Z,1.60
2018-09-30T16:44:52.094Z,1.70
2018-09-30T16:47:20.180Z,1.80
2018-09-30T16:49:48.538Z,2.40
2018-09-30T16:52:16.640Z,2.50
2018-09-30T16:54:44.705Z,2.60
2018-09-30T16:57:12.802Z,2.40
2018-09-30T16:59:40.870Z,2.20
2018-09-30T17:02:09.421Z,3.10
2018-09-30T17:04:37.481Z,3.40
2018-09-30T17:07:05.586Z,3.60
2018-09-30T17:09:33.662Z,3.50
2018-09-30T17:12:01.744Z,3.40
2018-09-30T17:14:29.810Z,3.90
2018-09-30T17:16:57.898Z,4.20
2018-09-30T17:19:25.982Z,4.30
2018-09-30T17:21:54.280Z,4.30
2018-09-30T17:24:22.362Z,4.70
2018-09-30T17:26:50.453Z,4.20
2018-09-30T17:29:18.537Z,5.10
2018-09-30T17:31:46.641Z,5.50
2018-09-30T17:34:14.698Z,6.20
2018-09-30T17:36:42.792Z,6.00
2018-09-30T17:39:11.071Z,6.60
2018-09-30T17:41:39.206Z,7.10
2018-09-30T17:44:07.299Z,7.10
2018-09-30T17:46:35.390Z,7.30
2018-09-30T17:49:03.662Z,7.30
2018-09-30T17:51:31.754Z,7.10
2018-09-30T17:53:59.914Z,6.50
2018-09-30T17:56:28.003Z,7.30
2018-09-30T17:58:56.070Z,7.20
2018-09-30T18:01:24.204Z,8.00
2018-09-30T18:03:52.276Z,8.10
2018-09-30T18:06:20.539Z,8.30
2018-09-30T18:08:48.638Z,8.50
2018-09-30T18:11:16.690Z,8.30
2018-09-30T18:13:44.783Z,8.10
2018-09-30T18:16:12.865Z,8.10
2018-09-30T18:18:40.971Z,8.40
2018-09-30T18:21:09.062Z,8.40
2018-09-30T18:23:37.173Z,8.70
2018-09-30T18:26:05.238Z,8.70
2018-09-30T18:28:33.330Z,8.90
2018-09-30T18:31:01.410Z,9.20
2018-09-30T18:33:31.489Z,9.50
2018-09-30T18:35:59.653Z,10.60
2018-09-30T18:38:27.989Z,11.20
2018-09-30T18:40:56.114Z,11.60
2018-09-30T18:43:24.382Z,12.00
2018-09-30T18:45:52.761Z,12.10
2018-09-30T18:48:20.850Z,12.10
2018-09-30T18:50:48.939Z,11.70
2018-09-30T18:53:17.040Z,11.60
2018-09-30T18:55:45.136Z,11.50
2018-09-30T18:58:13.203Z,11.80
2018-09-30T19:00:41.494Z,12.80
2018-09-30T19:03:09.624Z,12.00
2018-09-30T19:05:37.675Z,11.70
2018-09-30T19:08:05.931Z,11.80
2018-09-30T19:10:34.018Z,11.80
2018-09-30T19:13:02.128Z,12.00
2018-09-30T19:15:30.222Z,13.70
2018-09-30T19:17:58.310Z,14.30
2018-09-30T19:20:26.702Z,14.80
2018-09-30T19:22:54.876Z,12.30
2018-09-30T19:25:22.878Z,12.40
2018-09-30T19:27:51.207Z,13.30
2018-09-30T19:30:19.310Z,13.50
2018-09-30T19:32:52.622Z,13.70
2018-09-30T19:35:26.448Z,14.40
2018-09-30T19:37:58.282Z,15.30
2018-09-30T19:40:26.405Z,14.30
2018-09-30T19:42:54.515Z,13.20
2018-09-30T19:45:22.618Z,14.00
2018-09-30T19:47:50.804Z,13.30
2018-09-30T19:50:18.898Z,13.10
2018-09-30T19:52:47.010Z,13.90
2018-09-30T19:55:15.120Z,14.90
2018-09-30T19:57:43.210Z,15.30
2018-09-30T20:00:11.296Z,15.10
2018-09-30T20:02:39.378Z,15.30
2018-09-30T20:05:07.474Z,14.60
2018-09-30T20:07:35.548Z,14.80
2018-09-30T20:10:03.637Z,14.40
2018-09-30T20:12:31.742Z,14.40
2018-09-30T20:14:59.874Z,14.10
2018-09-30T20:17:27.998Z,13.80
2018-09-30T20:19:56.085Z,13.50
2018-09-30T20:22:24.154Z,13.50
2018-09-30T20:24:52.478Z,13.50
2018-09-30T20:27:20.559Z,13.30
2018-09-30T20:29:48.646Z,13.00
2018-09-30T20:32:16.718Z,13.10
2018-09-30T20:34:44.786Z,13.30
2018-09-30T20:37:13.040Z,13.50
2018-09-30T20:39:40.997Z,13.10
2018-09-30T20:42:09.082Z,13.40
2018-09-30T20:44:37.159Z,13.20
2018-09-30T20:47:05.234Z,13.20
2018-09-30T20:49:33.322Z,13.50
2018-09-30T20:52:01.402Z,13.60
2018-09-30T20:54:29.486Z,13.70
2018-09-30T20:56:57.595Z,14.20
2018-09-30T20:59:25.686Z,14.50
2018-09-30T21:01:53.773Z,15.30
2018-09-30T21:04:21.862Z,15.60
2018-09-30T21:06:49.946Z,16.40
2018-09-30T21:09:19.521Z,15.80
2018-09-30T21:11:47.592Z,15.20
2018-09-30T21:14:15.662Z,14.40
2018-09-30T21:16:43.738Z,13.60
2018-09-30T21:19:11.813Z,13.20
2018-09-30T21:21:39.898Z,12.80
2018-09-30T21:24:07.978Z,12.50
2018-09-30T21:26:36.050Z,12.60
2018-09-30T21:29:04.126Z,12.40
2018-09-30T21:31:32.227Z,12.30
2018-09-30T21:34:00.308Z,12.10
2018-09-30T21:36:28.399Z,11.90
2018-09-30T21:38:56.493Z,12.10
2018-09-30T21:41:25.367Z,12.20
2018-09-30T21:43:53.438Z,12.50
2018-09-30T21:46:21.518Z,12.40
2018-09-30T21:48:49.672Z,13.40
2018-09-30T21:51:17.689Z,13.80
2018-09-30T21:53:45.779Z,13.90
2018-09-30T21:56:13.918Z,13.80
2018-09-30T21:58:41.982Z,14.10
2018-09-30T22:01:10.065Z,13.40
2018-09-30T22:03:38.138Z,13.00
2018-09-30T22:06:06.421Z,12.70
2018-09-30T22:08:35.029Z,12.20
2018-09-30T22:11:03.111Z,12.20
2018-09-30T22:13:31.218Z,12.20
2018-09-30T22:15:59.309Z,12.10
2018-09-30T22:18:27.408Z,12.20
2018-09-30T22:20:55.506Z,12.90
2018-09-30T22:23:23.582Z,12.40
2018-09-30T22:25:51.670Z,12.00
2018-09-30T22:28:19.750Z,12.00
2018-09-30T22:30:47.837Z,11.80
2018-09-30T22:33:16.142Z,11.90
2018-09-30T22:35:44.225Z,11.40
2018-09-30T22:38:12.310Z,10.80
2018-09-30T22:40:40.394Z,10.70
2018-09-30T22:43:08.495Z,10.70
2018-09-30T22:45:36.574Z,10.60
2018-09-30T22:48:04.645Z,10.30
2018-09-30T22:50:32.808Z,9.90
2018-09-30T22:53:00.868Z,9.90
2018-09-30T22:55:28.958Z,9.80
2018-09-30T22:57:57.034Z,9.40
2018-09-30T23:00:26.210Z,9.20
2018-09-30T23:02:54.280Z,9.40
2018-09-30T23:05:22.366Z,9.30
2018-09-30T23:07:50.654Z,9.20
2018-09-30T23:10:18.782Z,9.10
2018-09-30T23:12:46.862Z,9.20
2018-09-30T23:15:15.202Z,9.10
2018-09-30T23:17:43.310Z,9.30
2018-09-30T23:20:15.866Z,9.10
2018-09-30T23:22:44.238Z,9.20
2018-09-30T23:25:12.330Z,9.10
2018-09-30T23:27:40.425Z,9.10
2018-09-30T23:30:08.666Z,9.30
2018-09-30T23:32:37.591Z,9.30
2018-09-30T23:35:05.650Z,9.60
2018-09-30T23:37:33.732Z,9.70
2018-09-30T23:40:01.819Z,9.90
2018-09-30T23:42:30.114Z,9.70
2018-09-30T23:44:58.211Z,9.90
2018-09-30T23:47:26.479Z,10.10
2018-09-30T23:49:54.594Z,10.30
2018-09-30T23:52:22.678Z,10.40
2018-09-30T23:54:50.939Z,10.40
2018-09-30T23:57:19.030Z,10.50
2018-09-30T23:59:47.134Z,10.60
